Overview Statistics Trail Chart Weather Telemetry Raw packets
 

This is the latest recevied weather packets stored in our database for station/object KC9DRE. If no packets are shown the sender has not sent any weather packets the latest 10 day(s).

<< 3 4 5 6 7 8 9 >>
Time Temp. Humidity Pressure Rain* Wind** Luminosity Snow
1777865528 12.78° C 59% 1013.5 hPa 0 mm - 0 W/m² -
1777865225 12.78° C 59% 1013.5 hPa 0 mm - 0 W/m² -
1777864933 12.78° C 59% 1013.7 hPa 0 mm - 0 W/m² -
1777864619 12.78° C 59% 1013.8 hPa 0 mm - 0 W/m² -
1777864315 12.78° C 60% 1013.7 hPa 0 mm - 0 W/m² -
1777864012 12.22° C 63% 1013.7 hPa 0 mm - 0 W/m² -
1777863709 11.67° C 65% 1013.7 hPa 0 mm - 0 W/m² -
1777863406 10.56° C 67% 1014 hPa 0 mm - 0 W/m² -
1777863102 10.56° C 70% 1014 hPa 0 mm - 0 W/m² -
1777862800 10.56° C 73% 1013.9 hPa 0 mm - 0 W/m² -
1777862496 10° C 74% 1014.1 hPa 0 mm - 0 W/m² -
1777862193 9.44° C 77% 1013.9 hPa 0 mm - 0 W/m² -
1777861889 8.89° C 81% 1014 hPa 0 mm - 0 W/m² -
1777861586 8.89° C 81% 1014 hPa 0 mm - 0 W/m² -
1777861281 8.89° C 81% 1013.9 hPa 0 mm - 0 W/m² -
1777860980 8.89° C 80% 1014.1 hPa 0 mm - 0 W/m² -
1777860676 8.89° C 80% 1014.2 hPa 0 mm - 0 W/m² -
1777860373 8.89° C 79% 1014 hPa 0 mm - 0 W/m² -
1777860069 8.89° C 81% 1014 hPa 0 mm - 0 W/m² -
1777859766 8.89° C 82% 1014.1 hPa 0 mm - 0 W/m² -
1777859461 8.89° C 81% 1014.3 hPa 0 mm - 0 W/m² -
1777859158 8.89° C 79% 1014.2 hPa 0 mm - 0 W/m² -
1777858855 8.89° C 79% 1014.1 hPa 0 mm - 0 W/m² -
1777858553 9.44° C 77% 1014.1 hPa 0 mm - 0 W/m² -
1777858250 10° C 75% 1014.1 hPa 0 mm - 0 W/m² -

* Rain latest hour (hover to see other rain measurements)
** Current wind speed in m/s (hover to see current wind gust speed)